sensor_id;sensor_type;location;lat;lon;timestamp;temperature;humidity
81218;DHT22;70689;52.494;13.420;2023-07-29T00:01:34;20.60;70.60
81218;DHT22;70689;52.494;13.420;2023-07-29T00:04:00;20.60;70.70
81218;DHT22;70689;52.494;13.420;2023-07-29T00:06:26;20.50;70.60
81218;DHT22;70689;52.494;13.420;2023-07-29T00:08:52;20.50;70.70
81218;DHT22;70689;52.494;13.420;2023-07-29T00:11:18;20.50;70.50
81218;DHT22;70689;52.494;13.420;2023-07-29T00:13:44;20.50;70.70
81218;DHT22;70689;52.494;13.420;2023-07-29T00:16:09;20.50;70.70
81218;DHT22;70689;52.494;13.420;2023-07-29T00:18:35;20.40;70.80
81218;DHT22;70689;52.494;13.420;2023-07-29T00:21:01;20.50;70.70
81218;DHT22;70689;52.494;13.420;2023-07-29T00:23:27;20.40;70.70
81218;DHT22;70689;52.494;13.420;2023-07-29T00:25:53;20.40;70.80
81218;DHT22;70689;52.494;13.420;2023-07-29T00:28:18;20.30;70.80
81218;DHT22;70689;52.494;13.420;2023-07-29T00:30:44;20.30;70.90
81218;DHT22;70689;52.494;13.420;2023-07-29T00:33:10;20.30;70.90
81218;DHT22;70689;52.494;13.420;2023-07-29T00:35:35;20.30;70.80
81218;DHT22;70689;52.494;13.420;2023-07-29T00:38:01;20.30;70.70
81218;DHT22;70689;52.494;13.420;2023-07-29T00:40:28;20.20;71.00
81218;DHT22;70689;52.494;13.420;2023-07-29T00:42:54;20.20;70.80
81218;DHT22;70689;52.494;13.420;2023-07-29T00:45:20;20.20;70.90
81218;DHT22;70689;52.494;13.420;2023-07-29T00:47:46;20.30;70.90
81218;DHT22;70689;52.494;13.420;2023-07-29T00:50:12;20.40;70.50
81218;DHT22;70689;52.494;13.420;2023-07-29T00:52:38;20.30;70.40
81218;DHT22;70689;52.494;13.420;2023-07-29T00:55:05;20.30;70.50
81218;DHT22;70689;52.494;13.420;2023-07-29T00:57:32;20.30;70.40
81218;DHT22;70689;52.494;13.420;2023-07-29T00:59:59;20.30;70.50
81218;DHT22;70689;52.494;13.420;2023-07-29T01:02:26;20.30;70.80
81218;DHT22;70689;52.494;13.420;2023-07-29T01:04:58;20.20;70.90
81218;DHT22;70689;52.494;13.420;2023-07-29T01:07:44;20.20;70.90
81218;DHT22;70689;52.494;13.420;2023-07-29T01:10:30;20.10;70.90
81218;DHT22;70689;52.494;13.420;2023-07-29T01:15:50;19.90;71.30
81218;DHT22;70689;52.494;13.420;2023-07-29T01:18:27;19.90;71.30
81218;DHT22;70689;52.494;13.420;2023-07-29T01:20:56;20.00;71.20
81218;DHT22;70689;52.494;13.420;2023-07-29T01:23:25;19.90;71.20
81218;DHT22;70689;52.494;13.420;2023-07-29T01:25:51;20.00;71.40
81218;DHT22;70689;52.494;13.420;2023-07-29T01:28:16;20.00;71.50
81218;DHT22;70689;52.494;13.420;2023-07-29T01:30:43;20.00;71.60
81218;DHT22;70689;52.494;13.420;2023-07-29T01:33:33;19.90;71.60
81218;DHT22;70689;52.494;13.420;2023-07-29T01:36:13;19.90;71.60
81218;DHT22;70689;52.494;13.420;2023-07-29T01:38:41;19.90;71.40
81218;DHT22;70689;52.494;13.420;2023-07-29T01:41:09;19.90;71.70
81218;DHT22;70689;52.494;13.420;2023-07-29T01:43:36;19.90;71.60
81218;DHT22;70689;52.494;13.420;2023-07-29T01:46:12;19.80;71.80
81218;DHT22;70689;52.494;13.420;2023-07-29T01:48:38;19.90;71.80
81218;DHT22;70689;52.494;13.420;2023-07-29T01:51:05;19.80;71.60
81218;DHT22;70689;52.494;13.420;2023-07-29T01:53:30;19.90;71.50
81218;DHT22;70689;52.494;13.420;2023-07-29T01:55:56;19.90;71.50
81218;DHT22;70689;52.494;13.420;2023-07-29T01:58:23;19.90;71.60
81218;DHT22;70689;52.494;13.420;2023-07-29T02:00:48;19.80;71.60
81218;DHT22;70689;52.494;13.420;2023-07-29T02:03:14;19.90;71.50
81218;DHT22;70689;52.494;13.420;2023-07-29T02:05:40;19.90;71.30
81218;DHT22;70689;52.494;13.420;2023-07-29T02:08:07;19.80;71.30
81218;DHT22;70689;52.494;13.420;2023-07-29T02:10:32;19.80;71.40
81218;DHT22;70689;52.494;13.420;2023-07-29T02:12:58;19.90;71.20
81218;DHT22;70689;52.494;13.420;2023-07-29T02:15:24;19.90;71.10
81218;DHT22;70689;52.494;13.420;2023-07-29T02:17:50;19.80;71.10
81218;DHT22;70689;52.494;13.420;2023-07-29T02:20:16;19.80;71.40
81218;DHT22;70689;52.494;13.420;2023-07-29T02:22:41;19.80;71.20
81218;DHT22;70689;52.494;13.420;2023-07-29T02:25:07;19.70;71.30
81218;DHT22;70689;52.494;13.420;2023-07-29T02:27:33;19.70;71.30
81218;DHT22;70689;52.494;13.420;2023-07-29T02:29:58;19.70;71.40
81218;DHT22;70689;52.494;13.420;2023-07-29T02:32:24;19.70;71.50
81218;DHT22;70689;52.494;13.420;2023-07-29T02:34:50;19.70;71.50
81218;DHT22;70689;52.494;13.420;2023-07-29T02:37:16;19.70;71.50
81218;DHT22;70689;52.494;13.420;2023-07-29T02:39:42;19.80;71.20
81218;DHT22;70689;52.494;13.420;2023-07-29T02:42:07;19.70;71.30
81218;DHT22;70689;52.494;13.420;2023-07-29T02:44:33;19.70;71.40
81218;DHT22;70689;52.494;13.420;2023-07-29T02:46:59;19.80;71.30
81218;DHT22;70689;52.494;13.420;2023-07-29T02:49:24;19.70;71.30
81218;DHT22;70689;52.494;13.420;2023-07-29T02:51:50;19.60;71.70
81218;DHT22;70689;52.494;13.420;2023-07-29T02:54:16;19.60;71.70
81218;DHT22;70689;52.494;13.420;2023-07-29T02:56:41;19.60;71.90
81218;DHT22;70689;52.494;13.420;2023-07-29T02:59:07;19.60;71.80
81218;DHT22;70689;52.494;13.420;2023-07-29T03:01:33;19.60;71.80
81218;DHT22;70689;52.494;13.420;2023-07-29T03:03:58;19.70;71.20
81218;DHT22;70689;52.494;13.420;2023-07-29T03:06:24;19.70;71.20
81218;DHT22;70689;52.494;13.420;2023-07-29T03:08:50;19.80;70.60
81218;DHT22;70689;52.494;13.420;2023-07-29T03:11:16;19.80;70.70
81218;DHT22;70689;52.494;13.420;2023-07-29T03:13:42;19.70;70.80
81218;DHT22;70689;52.494;13.420;2023-07-29T03:16:09;19.70;71.00
81218;DHT22;70689;52.494;13.420;2023-07-29T03:18:35;19.60;71.20
81218;DHT22;70689;52.494;13.420;2023-07-29T03:21:02;19.50;71.20
81218;DHT22;70689;52.494;13.420;2023-07-29T03:23:28;19.40;73.00
81218;DHT22;70689;52.494;13.420;2023-07-29T03:25:58;19.50;71.80
81218;DHT22;70689;52.494;13.420;2023-07-29T03:28:26;19.50;71.70
81218;DHT22;70689;52.494;13.420;2023-07-29T03:30:53;19.50;71.50
81218;DHT22;70689;52.494;13.420;2023-07-29T03:33:19;19.50;71.90
81218;DHT22;70689;52.494;13.420;2023-07-29T03:35:44;19.40;72.20
81218;DHT22;70689;52.494;13.420;2023-07-29T03:38:11;19.50;72.00
81218;DHT22;70689;52.494;13.420;2023-07-29T03:40:40;19.50;71.40
81218;DHT22;70689;52.494;13.420;2023-07-29T03:43:06;19.60;71.10
81218;DHT22;70689;52.494;13.420;2023-07-29T03:45:33;19.60;71.40
81218;DHT22;70689;52.494;13.420;2023-07-29T03:47:58;19.60;71.30
81218;DHT22;70689;52.494;13.420;2023-07-29T03:50:24;19.50;71.30
81218;DHT22;70689;52.494;13.420;2023-07-29T03:52:50;19.50;71.10
81218;DHT22;70689;52.494;13.420;2023-07-29T03:55:16;19.50;71.00
81218;DHT22;70689;52.494;13.420;2023-07-29T03:57:42;19.50;71.10
81218;DHT22;70689;52.494;13.420;2023-07-29T04:00:08;19.50;71.00
81218;DHT22;70689;52.494;13.420;2023-07-29T04:02:34;19.50;70.90
81218;DHT22;70689;52.494;13.420;2023-07-29T04:05:03;19.60;72.00
81218;DHT22;70689;52.494;13.420;2023-07-29T04:07:30;19.60;70.60
81218;DHT22;70689;52.494;13.420;2023-07-29T04:09:55;19.70;70.50
81218;DHT22;70689;52.494;13.420;2023-07-29T04:12:22;19.70;70.50
81218;DHT22;70689;52.494;13.420;2023-07-29T04:14:48;19.70;70.10
81218;DHT22;70689;52.494;13.420;2023-07-29T04:17:14;19.80;69.90
81218;DHT22;70689;52.494;13.420;2023-07-29T04:19:40;19.70;70.00
81218;DHT22;70689;52.494;13.420;2023-07-29T04:22:05;19.80;70.20
81218;DHT22;70689;52.494;13.420;2023-07-29T04:24:31;19.70;70.10
81218;DHT22;70689;52.494;13.420;2023-07-29T04:26:57;19.90;69.30
81218;DHT22;70689;52.494;13.420;2023-07-29T04:29:23;20.00;68.80
81218;DHT22;70689;52.494;13.420;2023-07-29T04:31:50;20.00;69.10
81218;DHT22;70689;52.494;13.420;2023-07-29T04:34:16;20.00;69.00
81218;DHT22;70689;52.494;13.420;2023-07-29T04:36:42;20.10;68.30
81218;DHT22;70689;52.494;13.420;2023-07-29T04:39:08;20.20;68.60
81218;DHT22;70689;52.494;13.420;2023-07-29T04:41:34;20.10;68.80
81218;DHT22;70689;52.494;13.420;2023-07-29T04:44:00;20.20;68.70
81218;DHT22;70689;52.494;13.420;2023-07-29T04:46:25;20.20;68.40
81218;DHT22;70689;52.494;13.420;2023-07-29T04:48:51;20.20;68.10
81218;DHT22;70689;52.494;13.420;2023-07-29T04:51:17;20.20;68.20
81218;DHT22;70689;52.494;13.420;2023-07-29T04:53:42;20.20;68.40
81218;DHT22;70689;52.494;13.420;2023-07-29T04:56:08;20.20;68.60
81218;DHT22;70689;52.494;13.420;2023-07-29T04:58:34;20.20;68.40
81218;DHT22;70689;52.494;13.420;2023-07-29T05:01:01;20.30;68.00
81218;DHT22;70689;52.494;13.420;2023-07-29T05:03:27;20.40;67.70
81218;DHT22;70689;52.494;13.420;2023-07-29T05:05:53;20.50;67.60
81218;DHT22;70689;52.494;13.420;2023-07-29T05:08:20;20.50;67.30
81218;DHT22;70689;52.494;13.420;2023-07-29T05:10:49;20.50;67.60
81218;DHT22;70689;52.494;13.420;2023-07-29T05:13:15;20.50;67.50
81218;DHT22;70689;52.494;13.420;2023-07-29T05:15:41;20.40;67.40
81218;DHT22;70689;52.494;13.420;2023-07-29T05:18:06;20.40;67.70
81218;DHT22;70689;52.494;13.420;2023-07-29T05:20:32;20.40;67.90
81218;DHT22;70689;52.494;13.420;2023-07-29T05:22:57;20.50;68.10
81218;DHT22;70689;52.494;13.420;2023-07-29T05:25:23;20.50;68.00
81218;DHT22;70689;52.494;13.420;2023-07-29T05:27:49;20.80;66.60
81218;DHT22;70689;52.494;13.420;2023-07-29T05:30:14;20.90;65.90
81218;DHT22;70689;52.494;13.420;2023-07-29T05:32:40;21.00;65.80
81218;DHT22;70689;52.494;13.420;2023-07-29T05:35:06;21.10;65.60
81218;DHT22;70689;52.494;13.420;2023-07-29T05:37:32;21.10;65.30
81218;DHT22;70689;52.494;13.420;2023-07-29T05:39:58;21.10;65.40
81218;DHT22;70689;52.494;13.420;2023-07-29T05:42:24;21.10;65.80
81218;DHT22;70689;52.494;13.420;2023-07-29T05:44:49;21.10;66.00
81218;DHT22;70689;52.494;13.420;2023-07-29T05:47:15;20.90;66.20
81218;DHT22;70689;52.494;13.420;2023-07-29T05:49:41;20.80;66.60
81218;DHT22;70689;52.494;13.420;2023-07-29T05:52:07;20.80;66.90
81218;DHT22;70689;52.494;13.420;2023-07-29T05:54:33;20.90;66.70
81218;DHT22;70689;52.494;13.420;2023-07-29T05:56:58;21.10;66.50
81218;DHT22;70689;52.494;13.420;2023-07-29T05:59:24;21.20;67.00
81218;DHT22;70689;52.494;13.420;2023-07-29T06:01:50;21.20;66.10
81218;DHT22;70689;52.494;13.420;2023-07-29T06:04:15;21.20;66.20
81218;DHT22;70689;52.494;13.420;2023-07-29T06:06:41;21.30;65.60
81218;DHT22;70689;52.494;13.420;2023-07-29T06:09:07;21.50;65.30
81218;DHT22;70689;52.494;13.420;2023-07-29T06:11:32;21.70;63.90
81218;DHT22;70689;52.494;13.420;2023-07-29T06:13:58;21.70;63.90
81218;DHT22;70689;52.494;13.420;2023-07-29T06:16:24;21.70;64.00
81218;DHT22;70689;52.494;13.420;2023-07-29T06:18:49;21.90;63.50
81218;DHT22;70689;52.494;13.420;2023-07-29T06:21:15;21.80;63.60
81218;DHT22;70689;52.494;13.420;2023-07-29T06:23:46;21.70;64.30
81218;DHT22;70689;52.494;13.420;2023-07-29T06:26:11;21.80;64.50
81218;DHT22;70689;52.494;13.420;2023-07-29T06:28:37;21.80;64.60
81218;DHT22;70689;52.494;13.420;2023-07-29T06:31:03;22.10;63.90
81218;DHT22;70689;52.494;13.420;2023-07-29T06:33:28;22.20;63.50
81218;DHT22;70689;52.494;13.420;2023-07-29T06:35:54;22.40;62.30
81218;DHT22;70689;52.494;13.420;2023-07-29T06:38:20;22.40;62.40
81218;DHT22;70689;52.494;13.420;2023-07-29T06:40:50;22.20;62.60
81218;DHT22;70689;52.494;13.420;2023-07-29T06:43:16;22.30;62.90
81218;DHT22;70689;52.494;13.420;2023-07-29T06:45:42;22.20;62.70
81218;DHT22;70689;52.494;13.420;2023-07-29T06:48:08;22.20;63.20
81218;DHT22;70689;52.494;13.420;2023-07-29T06:50:34;22.20;63.00
81218;DHT22;70689;52.494;13.420;2023-07-29T06:52:59;22.40;62.70
81218;DHT22;70689;52.494;13.420;2023-07-29T06:55:25;22.50;62.20
81218;DHT22;70689;52.494;13.420;2023-07-29T06:57:50;22.60;61.50
81218;DHT22;70689;52.494;13.420;2023-07-29T07:00:16;22.70;61.40
81218;DHT22;70689;52.494;13.420;2023-07-29T07:02:42;23.00;60.80
81218;DHT22;70689;52.494;13.420;2023-07-29T07:05:08;23.00;59.50
81218;DHT22;70689;52.494;13.420;2023-07-29T07:07:34;23.00;59.60
81218;DHT22;70689;52.494;13.420;2023-07-29T07:09:59;22.90;60.30
81218;DHT22;70689;52.494;13.420;2023-07-29T07:12:25;22.90;60.90
81218;DHT22;70689;52.494;13.420;2023-07-29T07:14:51;22.90;60.70
81218;DHT22;70689;52.494;13.420;2023-07-29T07:17:17;23.10;60.30
81218;DHT22;70689;52.494;13.420;2023-07-29T07:19:43;23.40;59.60
81218;DHT22;70689;52.494;13.420;2023-07-29T07:24:58;24.80;54.60
81218;DHT22;70689;52.494;13.420;2023-07-29T07:27:24;24.80;54.10
81218;DHT22;70689;52.494;13.420;2023-07-29T07:29:49;24.80;53.60
81218;DHT22;70689;52.494;13.420;2023-07-29T07:32:15;24.60;54.20
81218;DHT22;70689;52.494;13.420;2023-07-29T07:34:41;24.60;54.20
81218;DHT22;70689;52.494;13.420;2023-07-29T07:37:06;24.50;54.40
81218;DHT22;70689;52.494;13.420;2023-07-29T07:39:32;24.30;55.00
81218;DHT22;70689;52.494;13.420;2023-07-29T07:41:58;25.20;52.90
81218;DHT22;70689;52.494;13.420;2023-07-29T07:44:23;26.20;49.60
81218;DHT22;70689;52.494;13.420;2023-07-29T07:46:52;26.60;48.00
81218;DHT22;70689;52.494;13.420;2023-07-29T07:49:18;26.60;47.60
81218;DHT22;70689;52.494;13.420;2023-07-29T07:51:44;26.40;48.60
81218;DHT22;70689;52.494;13.420;2023-07-29T07:54:09;26.00;49.20
81218;DHT22;70689;52.494;13.420;2023-07-29T07:56:35;25.50;50.60
81218;DHT22;70689;52.494;13.420;2023-07-29T07:59:01;25.40;51.20
81218;DHT22;70689;52.494;13.420;2023-07-29T08:01:26;26.00;49.80
81218;DHT22;70689;52.494;13.420;2023-07-29T08:03:52;27.40;46.80
81218;DHT22;70689;52.494;13.420;2023-07-29T08:06:18;28.10;43.60
81218;DHT22;70689;52.494;13.420;2023-07-29T08:08:43;28.70;41.50
81218;DHT22;70689;52.494;13.420;2023-07-29T08:11:09;28.70;40.90
81218;DHT22;70689;52.494;13.420;2023-07-29T08:13:35;28.30;41.90
81218;DHT22;70689;52.494;13.420;2023-07-29T08:16:01;28.50;41.40
81218;DHT22;70689;52.494;13.420;2023-07-29T08:18:26;28.00;42.40
81218;DHT22;70689;52.494;13.420;2023-07-29T08:20:56;27.50;44.10
81218;DHT22;70689;52.494;13.420;2023-07-29T08:23:29;27.10;45.30
81218;DHT22;70689;52.494;13.420;2023-07-29T08:25:56;26.70;46.20
81218;DHT22;70689;52.494;13.420;2023-07-29T08:28:30;26.50;47.50
81218;DHT22;70689;52.494;13.420;2023-07-29T08:30:57;26.30;47.00
81218;DHT22;70689;52.494;13.420;2023-07-29T08:33:23;25.90;48.50
81218;DHT22;70689;52.494;13.420;2023-07-29T08:35:49;26.00;47.80
81218;DHT22;70689;52.494;13.420;2023-07-29T08:38:14;26.30;47.30
81218;DHT22;70689;52.494;13.420;2023-07-29T08:41:09;26.20;47.40
81218;DHT22;70689;52.494;13.420;2023-07-29T08:43:37;25.80;48.20
81218;DHT22;70689;52.494;13.420;2023-07-29T08:46:03;25.70;49.10
81218;DHT22;70689;52.494;13.420;2023-07-29T08:48:39;25.70;49.60
81218;DHT22;70689;52.494;13.420;2023-07-29T08:51:08;25.20;50.40
81218;DHT22;70689;52.494;13.420;2023-07-29T08:53:35;25.00;51.30
81218;DHT22;70689;52.494;13.420;2023-07-29T08:56:01;24.80;52.20
81218;DHT22;70689;52.494;13.420;2023-07-29T08:58:27;24.80;52.40
81218;DHT22;70689;52.494;13.420;2023-07-29T09:00:53;24.80;52.30
81218;DHT22;70689;52.494;13.420;2023-07-29T09:03:20;24.90;51.80
81218;DHT22;70689;52.494;13.420;2023-07-29T09:05:47;25.30;51.10
81218;DHT22;70689;52.494;13.420;2023-07-29T09:08:13;25.70;50.60
81218;DHT22;70689;52.494;13.420;2023-07-29T09:10:39;25.90;49.10
81218;DHT22;70689;52.494;13.420;2023-07-29T09:13:05;26.00;49.30
81218;DHT22;70689;52.494;13.420;2023-07-29T09:15:33;26.10;49.20
81218;DHT22;70689;52.494;13.420;2023-07-29T09:17:59;26.00;48.80
81218;DHT22;70689;52.494;13.420;2023-07-29T09:20:33;25.80;48.90
81218;DHT22;70689;52.494;13.420;2023-07-29T09:22:59;25.90;48.90
81218;DHT22;70689;52.494;13.420;2023-07-29T09:25:26;25.70;48.70
81218;DHT22;70689;52.494;13.420;2023-07-29T09:27:56;25.80;49.20
81218;DHT22;70689;52.494;13.420;2023-07-29T09:30:24;25.60;48.90
81218;DHT22;70689;52.494;13.420;2023-07-29T09:32:57;25.40;50.20
81218;DHT22;70689;52.494;13.420;2023-07-29T09:35:27;25.40;50.50
81218;DHT22;70689;52.494;13.420;2023-07-29T09:37:53;25.60;50.50
81218;DHT22;70689;52.494;13.420;2023-07-29T09:40:19;25.80;50.00
81218;DHT22;70689;52.494;13.420;2023-07-29T09:42:49;26.10;49.40
81218;DHT22;70689;52.494;13.420;2023-07-29T09:45:23;26.50;48.40
81218;DHT22;70689;52.494;13.420;2023-07-29T09:47:49;26.70;47.10
81218;DHT22;70689;52.494;13.420;2023-07-29T09:50:15;26.70;46.20
81218;DHT22;70689;52.494;13.420;2023-07-29T09:52:41;26.70;47.00
81218;DHT22;70689;52.494;13.420;2023-07-29T09:55:12;26.30;47.40
81218;DHT22;70689;52.494;13.420;2023-07-29T09:57:40;26.10;48.30
81218;DHT22;70689;52.494;13.420;2023-07-29T10:00:07;25.70;49.20
81218;DHT22;70689;52.494;13.420;2023-07-29T10:02:40;25.60;49.90
81218;DHT22;70689;52.494;13.420;2023-07-29T10:05:08;25.60;50.00
81218;DHT22;70689;52.494;13.420;2023-07-29T10:07:38;25.80;50.70
81218;DHT22;70689;52.494;13.420;2023-07-29T10:10:05;25.90;49.30
81218;DHT22;70689;52.494;13.420;2023-07-29T10:12:32;26.00;49.40
81218;DHT22;70689;52.494;13.420;2023-07-29T10:15:05;26.30;48.30
81218;DHT22;70689;52.494;13.420;2023-07-29T10:17:36;26.30;48.00
81218;DHT22;70689;52.494;13.420;2023-07-29T10:20:04;26.30;47.80
81218;DHT22;70689;52.494;13.420;2023-07-29T10:22:38;26.30;48.20
81218;DHT22;70689;52.494;13.420;2023-07-29T10:25:07;26.30;48.40
81218;DHT22;70689;52.494;13.420;2023-07-29T10:30:12;26.40;47.50
81218;DHT22;70689;52.494;13.420;2023-07-29T10:32:38;26.50;47.00
81218;DHT22;70689;52.494;13.420;2023-07-29T10:35:07;26.40;47.30
81218;DHT22;70689;52.494;13.420;2023-07-29T10:37:33;26.30;47.10
81218;DHT22;70689;52.494;13.420;2023-07-29T10:39:59;26.20;48.30
81218;DHT22;70689;52.494;13.420;2023-07-29T10:42:24;26.10;47.70
81218;DHT22;70689;52.494;13.420;2023-07-29T10:44:53;26.00;47.80
81218;DHT22;70689;52.494;13.420;2023-07-29T10:47:24;25.80;48.40
81218;DHT22;70689;52.494;13.420;2023-07-29T10:49:53;25.90;49.20
81218;DHT22;70689;52.494;13.420;2023-07-29T10:55:01;26.20;47.20
81218;DHT22;70689;52.494;13.420;2023-07-29T10:57:32;26.30;47.60
81218;DHT22;70689;52.494;13.420;2023-07-29T10:59:58;26.30;47.60
81218;DHT22;70689;52.494;13.420;2023-07-29T11:02:31;26.10;46.90
81218;DHT22;70689;52.494;13.420;2023-07-29T11:04:57;26.00;46.10
81218;DHT22;70689;52.494;13.420;2023-07-29T11:07:27;25.80;46.60
81218;DHT22;70689;52.494;13.420;2023-07-29T11:09:54;25.70;46.20
81218;DHT22;70689;52.494;13.420;2023-07-29T11:17:42;25.20;47.20
81218;DHT22;70689;52.494;13.420;2023-07-29T11:20:08;25.10;48.20
81218;DHT22;70689;52.494;13.420;2023-07-29T11:22:35;24.50;53.20
81218;DHT22;70689;52.494;13.420;2023-07-29T11:25:01;23.70;59.30
81218;DHT22;70689;52.494;13.420;2023-07-29T11:27:26;22.60;63.80
81218;DHT22;70689;52.494;13.420;2023-07-29T11:30:06;22.20;66.70
81218;DHT22;70689;52.494;13.420;2023-07-29T11:32:33;21.70;69.10
81218;DHT22;70689;52.494;13.420;2023-07-29T11:35:10;21.60;69.70
81218;DHT22;70689;52.494;13.420;2023-07-29T11:37:37;21.50;70.60
81218;DHT22;70689;52.494;13.420;2023-07-29T11:40:04;21.50;71.50
81218;DHT22;70689;52.494;13.420;2023-07-29T11:42:34;21.60;71.00
81218;DHT22;70689;52.494;13.420;2023-07-29T11:45:00;21.50;70.90
81218;DHT22;70689;52.494;13.420;2023-07-29T11:47:27;21.50;70.60
81218;DHT22;70689;52.494;13.420;2023-07-29T11:49:52;21.50;71.20
81218;DHT22;70689;52.494;13.420;2023-07-29T11:52:18;21.60;72.60
81218;DHT22;70689;52.494;13.420;2023-07-29T11:54:49;21.70;71.40
81218;DHT22;70689;52.494;13.420;2023-07-29T11:57:16;21.60;71.70
81218;DHT22;70689;52.494;13.420;2023-07-29T11:59:44;21.50;72.10
81218;DHT22;70689;52.494;13.420;2023-07-29T12:02:15;21.60;72.10
81218;DHT22;70689;52.494;13.420;2023-07-29T12:04:41;21.70;70.90
81218;DHT22;70689;52.494;13.420;2023-07-29T12:07:08;21.70;70.90
81218;DHT22;70689;52.494;13.420;2023-07-29T12:09:35;21.80;71.50
81218;DHT22;70689;52.494;13.420;2023-07-29T12:12:03;21.80;71.40
81218;DHT22;70689;52.494;13.420;2023-07-29T12:14:29;22.00;71.60
81218;DHT22;70689;52.494;13.420;2023-07-29T12:16:54;22.10;71.30
81218;DHT22;70689;52.494;13.420;2023-07-29T12:19:20;22.10;71.00
81218;DHT22;70689;52.494;13.420;2023-07-29T12:21:48;22.20;70.50
81218;DHT22;70689;52.494;13.420;2023-07-29T12:24:14;22.20;70.10
81218;DHT22;70689;52.494;13.420;2023-07-29T12:26:41;22.30;69.90
81218;DHT22;70689;52.494;13.420;2023-07-29T12:29:17;22.20;70.30
81218;DHT22;70689;52.494;13.420;2023-07-29T12:31:45;22.20;70.20
81218;DHT22;70689;52.494;13.420;2023-07-29T12:34:21;22.20;70.90
81218;DHT22;70689;52.494;13.420;2023-07-29T12:36:48;22.20;70.10
81218;DHT22;70689;52.494;13.420;2023-07-29T12:39:27;22.10;70.60
81218;DHT22;70689;52.494;13.420;2023-07-29T12:41:54;22.10;72.30
81218;DHT22;70689;52.494;13.420;2023-07-29T12:44:22;22.10;72.00
81218;DHT22;70689;52.494;13.420;2023-07-29T12:46:48;22.30;71.10
81218;DHT22;70689;52.494;13.420;2023-07-29T12:49:14;22.50;70.80
81218;DHT22;70689;52.494;13.420;2023-07-29T12:51:40;22.70;71.30
81218;DHT22;70689;52.494;13.420;2023-07-29T12:54:06;23.10;67.20
81218;DHT22;70689;52.494;13.420;2023-07-29T12:56:33;23.60;68.10
81218;DHT22;70689;52.494;13.420;2023-07-29T12:59:00;24.20;65.70
81218;DHT22;70689;52.494;13.420;2023-07-29T13:01:26;24.60;60.20
81218;DHT22;70689;52.494;13.420;2023-07-29T13:03:53;24.80;58.30
81218;DHT22;70689;52.494;13.420;2023-07-29T13:06:19;24.70;59.60
81218;DHT22;70689;52.494;13.420;2023-07-29T13:08:45;24.50;60.50
81218;DHT22;70689;52.494;13.420;2023-07-29T13:11:11;24.50;60.40
81218;DHT22;70689;52.494;13.420;2023-07-29T13:13:37;24.30;61.50
81218;DHT22;70689;52.494;13.420;2023-07-29T13:16:03;24.30;63.10
81218;DHT22;70689;52.494;13.420;2023-07-29T13:18:28;24.00;62.10
81218;DHT22;70689;52.494;13.420;2023-07-29T13:20:54;24.00;61.40
81218;DHT22;70689;52.494;13.420;2023-07-29T13:23:21;23.80;61.90
81218;DHT22;70689;52.494;13.420;2023-07-29T13:25:46;23.70;62.70
81218;DHT22;70689;52.494;13.420;2023-07-29T13:28:13;23.70;62.60
81218;DHT22;70689;52.494;13.420;2023-07-29T13:30:41;23.40;63.70
81218;DHT22;70689;52.494;13.420;2023-07-29T13:33:08;23.30;63.50
81218;DHT22;70689;52.494;13.420;2023-07-29T13:35:33;23.40;63.00
81218;DHT22;70689;52.494;13.420;2023-07-29T13:38:00;23.50;64.20
81218;DHT22;70689;52.494;13.420;2023-07-29T13:40:26;23.70;63.10
81218;DHT22;70689;52.494;13.420;2023-07-29T13:42:51;24.20;62.00
81218;DHT22;70689;52.494;13.420;2023-07-29T13:45:18;24.70;57.40
81218;DHT22;70689;52.494;13.420;2023-07-29T13:47:44;24.60;58.30
81218;DHT22;70689;52.494;13.420;2023-07-29T13:50:09;24.80;55.30
81218;DHT22;70689;52.494;13.420;2023-07-29T13:52:36;25.00;54.50
81218;DHT22;70689;52.494;13.420;2023-07-29T13:55:03;25.20;54.20
81218;DHT22;70689;52.494;13.420;2023-07-29T13:57:29;25.50;54.40
81218;DHT22;70689;52.494;13.420;2023-07-29T13:59:54;25.80;53.20
81218;DHT22;70689;52.494;13.420;2023-07-29T14:02:20;25.80;51.70
81218;DHT22;70689;52.494;13.420;2023-07-29T14:04:46;25.60;52.40
81218;DHT22;70689;52.494;13.420;2023-07-29T14:07:11;25.10;54.00
81218;DHT22;70689;52.494;13.420;2023-07-29T14:09:37;25.10;54.90
81218;DHT22;70689;52.494;13.420;2023-07-29T14:12:04;25.20;54.90
81218;DHT22;70689;52.494;13.420;2023-07-29T14:14:31;25.20;54.40
81218;DHT22;70689;52.494;13.420;2023-07-29T14:16:56;25.10;54.60
81218;DHT22;70689;52.494;13.420;2023-07-29T14:19:23;25.10;54.30
81218;DHT22;70689;52.494;13.420;2023-07-29T14:21:48;25.00;55.00
81218;DHT22;70689;52.494;13.420;2023-07-29T14:24:14;24.90;55.00
81218;DHT22;70689;52.494;13.420;2023-07-29T14:26:41;24.90;55.40
81218;DHT22;70689;52.494;13.420;2023-07-29T14:29:07;24.80;54.20
81218;DHT22;70689;52.494;13.420;2023-07-29T14:31:32;24.80;55.10
81218;DHT22;70689;52.494;13.420;2023-07-29T14:33:58;25.00;55.80
81218;DHT22;70689;52.494;13.420;2023-07-29T14:36:25;25.20;55.60
81218;DHT22;70689;52.494;13.420;2023-07-29T14:38:51;25.50;54.10
81218;DHT22;70689;52.494;13.420;2023-07-29T14:41:16;25.30;53.90
81218;DHT22;70689;52.494;13.420;2023-07-29T14:43:42;25.20;53.50
81218;DHT22;70689;52.494;13.420;2023-07-29T14:46:08;25.00;54.20
81218;DHT22;70689;52.494;13.420;2023-07-29T14:48:33;25.10;53.90
81218;DHT22;70689;52.494;13.420;2023-07-29T14:50:59;25.10;54.70
81218;DHT22;70689;52.494;13.420;2023-07-29T14:53:25;25.20;53.90
81218;DHT22;70689;52.494;13.420;2023-07-29T14:55:50;25.00;54.40
81218;DHT22;70689;52.494;13.420;2023-07-29T14:58:16;24.80;54.30
81218;DHT22;70689;52.494;13.420;2023-07-29T15:00:42;24.60;55.00
81218;DHT22;70689;52.494;13.420;2023-07-29T15:03:08;24.60;55.50
81218;DHT22;70689;52.494;13.420;2023-07-29T15:05:34;24.50;56.20
81218;DHT22;70689;52.494;13.420;2023-07-29T15:07:59;24.30;55.90
81218;DHT22;70689;52.494;13.420;2023-07-29T15:10:25;24.30;56.60
81218;DHT22;70689;52.494;13.420;2023-07-29T15:12:51;24.30;56.50
81218;DHT22;70689;52.494;13.420;2023-07-29T15:15:17;24.40;56.30
81218;DHT22;70689;52.494;13.420;2023-07-29T15:17:42;24.40;56.40
81218;DHT22;70689;52.494;13.420;2023-07-29T15:20:08;24.30;56.60
81218;DHT22;70689;52.494;13.420;2023-07-29T15:22:34;24.20;56.00
81218;DHT22;70689;52.494;13.420;2023-07-29T15:25:00;24.30;56.20
81218;DHT22;70689;52.494;13.420;2023-07-29T15:27:29;24.30;55.30
81218;DHT22;70689;52.494;13.420;2023-07-29T15:29:55;24.30;55.10